Mahnomen, MN

9:08 AM CST on February 07, 2016 (GMT -0600)
East of Syre on 113 | | Change Station
CLOSE
Current Station
Personal Weather Station
Location: Twin Valley, MN
Elevation: 1207 ft
Nearby Weather Stations
Active Advisory: Winter Storm Warning

Elev 1207 ft 47.18 °N, 96.19 °W | Updated 14 seconds ago

Overcast
Overcast
33.4 °F
Feels Like 26 °F
N
8.9
Wind Variable Wind from West
Gusts 9.8 mph

Today
High -- | Low -- °F
--% Chance of Precip.
Yesterday
High -- | Low -- °F
Precip. -- in
Pressure 29.51 in
Visibility 10.0 miles
Clouds Scattered Clouds 1200 ft
Overcast 1800 ft
Windchill 26 °F
Dew Point 28 °F
Humidity 80%
Rainfall 0.00 in
Snow Depth Not available.
7:41 AM 5:34 PM
Waning Crescent, 1% visible
METAR KFSE 071455Z AUTO 27017G21KT 10SM SCT012 OVC018 M01/M02 A2951 RMK AO2
Pressure 29.51 in
Visibility 10.0 miles
Clouds Scattered Clouds 1200 ft
Overcast 1800 ft
Windchill 26 °F
Dew Point 28 °F
Humidity 80%
Rainfall 0.00 in
Snow Depth Not available.
7:41 AM 5:34 PM
Waning Crescent, 1% visible
METAR KFSE 071455Z AUTO 27017G21KT 10SM SCT012 OVC018 M01/M02 A2951 RMK AO2

10-Day Weather Forecast

Almanac

Astronomy

Feb. 07, 2016 Rise Set
Actual Time
Civil Twilight
Nautical Twilight
Astronomical Twilight
Moon
Length of Visible Light
Length of Day
Tomorrow will be .
, % of the Moon is Illuminated

Today's Extremes

State Highs State Lows

Community

WunderPhotos

Upload Photos

1,891,211 photos uploaded!

WunderBlog® & News

Nearby

Air Quality

  Air Quality AQ Index Pollutant
Not available.

Snow Depth

Station Depth Elevation

Earthquake Activity

City Distance Mag. Time & Date
Minimum magnitude displayed is 2.5.

Coastal Water Temperatures

Place Temperature

Stations

Nearby Weather Stations

Station Location Temp. Windchill Dew Point Humidity Wind Precip. Elev Updated Type
                   

Watches & Warnings

Winter Storm Warning
Issued: 4:22 AM CST Feb. 7, 2016 – National Weather Service

... Winter Storm Warning remains in effect from 9 am this morning
to 6 am CST Monday...

* timing... expect snow to develop around 9 am Sunday and then
diminish around 6 am Monday.

* Snow accumulations... 1 to 3 inches.

* Winds / visibilities... winds gusting as high as 50 mph will
cause widespread blowing and drifting snow.

* Impacts... plan on difficult driving conditions.

Precautionary/preparedness actions...

A Winter Storm Warning for snow means severe winter weather
conditions are expected. If you must travel... keep an extra
flashlight... food and water in your vehicle in case of an
emergency. The latest Road conditions for the state you are
calling from can be obtained by calling 5 1 1.